• Join FlightAware (Why Join?)
  • Login
  • US Flag 
11:55PM EDT


 

Airport Tracker/Info


-or-


 

Live Flight TrackerFlight Track Log ✈ VV7E116 ✈ 31-Jan-2014 ✈ KNDZ - KNDZ

Flight Track Log - Related Links

Times and Time Zones

All times are in EST time to prevent confusion due to time zone crossing. See the VV7E116 flight status page for this flight to view local times or setup timezone preferences in your user account.

Time Position Orientation Groundspeed Altitude Reporting Facility
EST Latitude Longitude Course Direction KTS MPH feet Rate Location/Type
05:02PM 30.7075 -87.0069 North 42 48 500  Level Jacksonville Center
05:03PM 30.6906 -87.0111 192° South 63 72 1,700 720 Climbing Jacksonville Center
05:04PM 30.6711 -87.0272 215° Southwest 89 102 2,200 540 Climbing Jacksonville Center
05:05PM 30.6664 -87.0464 254° West 70 81 2,900 360 Climbing Jacksonville Center
05:06PM 30.6867 -87.0689 316° Northwest 115 132 3,000 60 Climbing Jacksonville Center
05:07PM 30.7086 -87.0942 315° West 111 128 3,100  Climbing Jacksonville Center
05:08PM 30.6986 -87.0144 North  Level Estimated
05:08PM 30.7347 -87.1242 315° West 112 129 3,100  Level Jacksonville Center
05:09PM 30.7508 -87.1442 313° West 110 127 3,100 -60 Level Jacksonville Center
05:10PM 30.7708 -87.1717 310° West 112 129 3,000 -120 Descending Jacksonville Center
05:11PM 30.7864 -87.2086 296° West 110 127 2,900  Descending Jacksonville Center
05:12PM 30.7872 -87.2425 272° West 103 119 3,100  Climbing Jacksonville Center
05:13PM 30.7881 -87.2814 114° Southeast 107 123 3,000  Descending Jacksonville Center
05:14PM 30.7699 -87.1978 114° Southeast  Level Estimated
05:15PM 30.8100 -87.3064 316° Northwest 94 108 3,100  Level Jacksonville Center
05:16PM 30.8267 -87.3072 358° North 68 78 3,100 -60 Level Jacksonville Center
05:17PM 30.8147 -87.2897 128° Southeast 74 85 3,000 -60 Descending Jacksonville Center
05:18PM 30.7983 -87.2817 157° South 70 81 3,000  Level Jacksonville Center
05:19PM 30.7814 -87.2883 199° South 86 99 3,000  Level Jacksonville Center
05:20PM 30.7997 -87.3011 329° Northwest 94 108 3,000  Level Jacksonville Center
05:21PM 30.8247 -87.3072 348° North 86 99 3,100 -60 Climbing Jacksonville Center
05:22PM 30.8150 -87.2875 120° Southeast 71 82 2,900 -60 Descending Jacksonville Center
05:22PM 30.8006 -87.2819 162° South 65 75 3,000  Climbing Jacksonville Center
05:23PM 30.7817 -87.2833 184° South 71 82 3,000  Level Jacksonville Center
05:25PM 30.7978 -87.2986 321° Northwest 97 112 3,000  Level Jacksonville Center
05:26PM 30.8147 -87.2897 24° Northeast 76 87 3,000  Level Jacksonville Center
05:27PM 30.7983 -87.2817 157° South 71 82 3,000  Level Jacksonville Center
05:28PM 30.7797 -87.2786 172° South 72 83 3,000  Level Jacksonville Center
05:29PM 30.7569 -87.2703 163° South 81 93 3,000  Level Jacksonville Center
05:29PM 30.7342 -87.2642 167° South 90 104 3,000  Level Jacksonville Center
05:31PM 30.7072 -87.2583 169° South 92 106 3,100  Climbing Jacksonville Center
05:32PM 30.6819 -87.2642 191° South 101 116 3,000 -60 Descending Jacksonville Center
05:33PM 30.6606 -87.2850 220° Southwest 95 109 3,000  Level Jacksonville Center
05:34PM 30.6411 -87.3036 219° Southwest 99 114 3,000  Level Jacksonville Center
05:35PM 30.6217 -87.3194 215° Southwest 87 100 3,000  Level Jacksonville Center
05:36PM 30.6100 -87.2972 121° Southeast 86 99 3,000  Level Jacksonville Center
05:37PM 30.6089 -87.2658 92° East 88 101 3,000 -120 Level Jacksonville Center
05:38PM 30.6036 -87.2389 103° East 88 101 2,800 -420 Descending Jacksonville Center
05:39PM 30.5853 -87.2236 144° Southeast 83 96 2,200 -480 Descending Jacksonville Center
05:40PM 30.5625 -87.2178 168° South 88 101 1,800 -420 Descending Jacksonville Center
05:41PM 30.5419 -87.2097 161° South 91 105 1,400 -480 Descending Jacksonville Center
05:42PM 30.5131 -87.2036 170° South 91 105 900 -300 Descending Jacksonville Center
05:43PM 30.4883 -87.1928 159° South 80 92 800 120 Descending Jacksonville Center
05:44PM 30.4867 -87.1758 97° East 65 75 1,200 420 Climbing Jacksonville Center
05:45PM 30.4917 -87.1544 75° East 62 71 1,700 240 Climbing Jacksonville Center
05:46PM 30.4986 -87.1331 69° East 87 100 1,700  Level Jacksonville Center
05:47PM 30.5058 -87.1044 74° East 86 99 1,700  Level Jacksonville Center
05:48PM 30.5150 -87.0831 64° Northeast 86 99 1,700  Level Jacksonville Center
05:49PM 30.5242 -87.0569 68° East 84 97 1,700  Level Jacksonville Center
05:50PM 30.5314 -87.0258 75° East 89 102 1,800  Climbing Jacksonville Center
05:51PM 30.5428 -87.0000 63° Northeast 86 99 1,700 -60 Descending Jacksonville Center
05:52PM 30.5497 -86.9761 71° East 83 96 1,700  Level Jacksonville Center
05:53PM 30.5550 -86.9450 79° East 87 100 1,700  Level Jacksonville Center
05:54PM 30.5678 -86.9333 38° Northeast 91 105 1,700  Level Jacksonville Center
05:55PM 30.5906 -86.9369 352° North 105 121 1,700  Level Jacksonville Center
05:56PM 30.6197 -86.9428 350° North 82 94 1,700 -240 Level Jacksonville Center
05:57PM 30.6358 -86.9581 321° Northwest 92 106 1,300 -420 Descending Jacksonville Center
05:58PM 30.6539 -86.9781 316° Northwest 92 106 1,000  Descending Jacksonville Center
05:59PM 30.6472 -86.9922 241° Southwest 82 94 1,400 300 Climbing Jacksonville Center
06:00PM 30.6261 -87.0011 200° South 88 101 1,700 120 Climbing Jacksonville Center
06:01PM 30.5992 -86.9950 169° South 95 109 1,700  Level Jacksonville Center
06:02PM 30.5681 -86.9867 167° South 94 108 1,700  Level Jacksonville Center
06:03PM 30.5539 -86.9739 142° Southeast 89 102 1,700  Level Jacksonville Center
06:04PM 30.5631 -86.9500 66° East 83 96 1,700  Level Jacksonville Center
06:05PM 30.5722 -86.9289 63° Northeast 95 109 1,800 -60 Climbing Jacksonville Center
06:07PM 30.6200 -86.9333 355° North 84 97 1,600 -180 Descending Jacksonville Center
06:08PM 30.6381 -86.9558 313° West 88 101 1,400 -120 Descending Jacksonville Center
06:09PM 30.6542 -86.9758 313° West 86 99 1,400 120 Level Jacksonville Center
06:10PM 30.6492 -86.9950 253° West 79 91 1,700 120 Climbing Jacksonville Center
06:11PM 30.6197 -87.0081 201° Southwest 93 107 1,700  Level Jacksonville Center
06:13PM 30.5717 -87.0108 183° South 95 109 1,700  Level Jacksonville Center
06:14PM 30.5536 -86.9883 133° Southeast 85 98 1,700  Level Jacksonville Center
06:15PM 30.5608 -86.9550 76° East 86 99 1,800  Climbing Jacksonville Center
06:16PM 30.5678 -86.9311 71° East 88 101 1,800 -60 Level Jacksonville Center
06:17PM 30.5850 -86.9150 39° Northeast 88 101 1,700 -60 Descending Jacksonville Center
06:18PM 30.6078 -86.9256 338° Northwest 91 105 1,700  Level Jacksonville Center
06:19PM 30.6239 -86.9456 313° West 87 100 1,700 -120 Level Jacksonville Center
06:20PM 30.6439 -86.9656 319° Northwest 88 101 1,500 -420 Descending Jacksonville Center
06:21PM 30.6600 -86.9856 313° West 89 102 900 -180 Descending Jacksonville Center
06:22PM 30.6678 -87.0053 295° West 72 83 1,200 360 Climbing Jacksonville Center
06:23PM 30.6489 -87.0117 196° South 70 81 1,700 240 Climbing Jacksonville Center
06:24PM 30.6233 -87.0228 201° Southwest 101 116 1,700  Level Jacksonville Center
06:25PM 30.5989 -87.0072 151° Southeast 96 110 1,700  Level Jacksonville Center
06:26PM 30.5783 -86.9917 147° Southeast 97 112 1,700  Level Jacksonville Center
06:27PM 30.5606 -86.9669 130° Southeast 96 110 1,700  Level Jacksonville Center
06:28PM 30.5614 -86.9356 88° East 93 107 1,700  Level Jacksonville Center
06:29PM 30.5767 -86.9144 50° Northeast 94 108 1,800  Climbing Jacksonville Center
06:30PM 30.5994 -86.9181 352° North 101 116 1,700 -120 Descending Jacksonville Center
06:31PM 30.6197 -86.9381 320° Northwest 89 102 1,600 -60 Descending Jacksonville Center
06:32PM 30.6400 -86.9606 316° Northwest 91 105 1,600 -300 Level Jacksonville Center
06:33PM 30.6539 -86.9781 313° West 89 102 1,100 -540 Descending Jacksonville Center
06:34PM 30.6761 -87.0008 319° Northwest 86 99 600 -480 Descending Jacksonville Center
06:36PM 30.6833 -87.0000 330° Northwest  Level FlightAware Approximate